sensor_id;sensor_type;location;lat;lon;timestamp;P1;durP1;ratioP1;P2;durP2;ratioP2
14141;SDS011;7151;52.246;4.820;2024-03-23T00:54:37;7.10;;;2.33;;
14141;SDS011;7151;52.246;4.820;2024-03-23T00:57:02;11.57;;;3.10;;
14141;SDS011;7151;52.246;4.820;2024-03-23T00:59:28;4.60;;;2.53;;
14141;SDS011;7151;52.246;4.820;2024-03-23T01:01:54;7.17;;;2.67;;
14141;SDS011;7151;52.246;4.820;2024-03-23T01:04:20;7.30;;;2.87;;
14141;SDS011;7151;52.246;4.820;2024-03-23T01:06:45;10.80;;;2.10;;
14141;SDS011;7151;52.246;4.820;2024-03-23T01:09:12;6.83;;;2.80;;
14141;SDS011;7151;52.246;4.820;2024-03-23T01:11:38;8.20;;;3.20;;
14141;SDS011;7151;52.246;4.820;2024-03-23T01:14:04;9.00;;;3.63;;
14141;SDS011;7151;52.246;4.820;2024-03-23T01:16:31;11.67;;;2.93;;
14141;SDS011;7151;52.246;4.820;2024-03-23T01:18:56;4.60;;;3.07;;
14141;SDS011;7151;52.246;4.820;2024-03-23T01:21:22;7.80;;;2.70;;
14141;SDS011;7151;52.246;4.820;2024-03-23T01:23:48;12.53;;;3.03;;
14141;SDS011;7151;52.246;4.820;2024-03-23T01:26:14;5.83;;;2.53;;
14141;SDS011;7151;52.246;4.820;2024-03-23T01:28:39;7.07;;;2.63;;
14141;SDS011;7151;52.246;4.820;2024-03-23T01:31:05;5.57;;;2.20;;
14141;SDS011;7151;52.246;4.820;2024-03-23T01:33:31;10.90;;;2.77;;
14141;SDS011;7151;52.246;4.820;2024-03-23T01:35:56;8.33;;;2.67;;
14141;SDS011;7151;52.246;4.820;2024-03-23T01:38:22;4.50;;;2.00;;
14141;SDS011;7151;52.246;4.820;2024-03-23T01:40:47;8.53;;;2.60;;
14141;SDS011;7151;52.246;4.820;2024-03-23T01:43:13;6.93;;;2.50;;
14141;SDS011;7151;52.246;4.820;2024-03-23T01:45:38;4.63;;;1.70;;
14141;SDS011;7151;52.246;4.820;2024-03-23T01:48:04;3.33;;;2.17;;
14141;SDS011;7151;52.246;4.820;2024-03-23T01:50:30;9.43;;;2.23;;
14141;SDS011;7151;52.246;4.820;2024-03-23T01:52:59;5.77;;;1.80;;
14141;SDS011;7151;52.246;4.820;2024-03-23T01:55:27;4.93;;;2.10;;
14141;SDS011;7151;52.246;4.820;2024-03-23T01:57:53;6.33;;;2.50;;
14141;SDS011;7151;52.246;4.820;2024-03-23T02:00:21;5.20;;;2.60;;
14141;SDS011;7151;52.246;4.820;2024-03-23T02:02:48;6.37;;;1.77;;
14141;SDS011;7151;52.246;4.820;2024-03-23T02:05:14;3.67;;;1.87;;
14141;SDS011;7151;52.246;4.820;2024-03-23T02:07:40;7.37;;;1.80;;
14141;SDS011;7151;52.246;4.820;2024-03-23T02:10:07;6.00;;;2.23;;
14141;SDS011;7151;52.246;4.820;2024-03-23T02:12:34;5.07;;;1.70;;
14141;SDS011;7151;52.246;4.820;2024-03-23T02:15:00;4.63;;;1.60;;
14141;SDS011;7151;52.246;4.820;2024-03-23T02:17:27;4.87;;;1.60;;
14141;SDS011;7151;52.246;4.820;2024-03-23T02:19:54;4.37;;;1.30;;
14141;SDS011;7151;52.246;4.820;2024-03-23T02:22:19;5.73;;;2.13;;
14141;SDS011;7151;52.246;4.820;2024-03-23T02:24:45;5.00;;;2.03;;
14141;SDS011;7151;52.246;4.820;2024-03-23T02:27:11;3.13;;;1.40;;
14141;SDS011;7151;52.246;4.820;2024-03-23T02:29:37;4.20;;;1.10;;
14141;SDS011;7151;52.246;4.820;2024-03-23T02:32:02;2.57;;;1.37;;
14141;SDS011;7151;52.246;4.820;2024-03-23T02:34:28;4.53;;;1.13;;
14141;SDS011;7151;52.246;4.820;2024-03-23T02:36:53;5.97;;;1.40;;
14141;SDS011;7151;52.246;4.820;2024-03-23T02:39:19;3.70;;;1.50;;
14141;SDS011;7151;52.246;4.820;2024-03-23T02:41:45;5.30;;;1.30;;
14141;SDS011;7151;52.246;4.820;2024-03-23T02:44:10;2.13;;;1.30;;
14141;SDS011;7151;52.246;4.820;2024-03-23T02:46:37;2.13;;;1.23;;
14141;SDS011;7151;52.246;4.820;2024-03-23T02:49:03;4.57;;;1.20;;
14141;SDS011;7151;52.246;4.820;2024-03-23T02:51:29;4.17;;;1.13;;
14141;SDS011;7151;52.246;4.820;2024-03-23T02:53:55;2.50;;;1.27;;
14141;SDS011;7151;52.246;4.820;2024-03-23T02:56:21;3.27;;;0.83;;
14141;SDS011;7151;52.246;4.820;2024-03-23T02:58:47;4.73;;;1.47;;
14141;SDS011;7151;52.246;4.820;2024-03-23T03:01:12;2.77;;;1.63;;
14141;SDS011;7151;52.246;4.820;2024-03-23T03:03:38;4.90;;;1.13;;
14141;SDS011;7151;52.246;4.820;2024-03-23T03:06:04;5.37;;;1.20;;
14141;SDS011;7151;52.246;4.820;2024-03-23T03:08:29;3.80;;;1.03;;
14141;SDS011;7151;52.246;4.820;2024-03-23T03:10:55;5.13;;;1.10;;
14141;SDS011;7151;52.246;4.820;2024-03-23T03:13:20;4.33;;;1.37;;
14141;SDS011;7151;52.246;4.820;2024-03-23T03:15:46;2.40;;;1.07;;
14141;SDS011;7151;52.246;4.820;2024-03-23T03:18:12;6.13;;;1.07;;
14141;SDS011;7151;52.246;4.820;2024-03-23T03:20:38;3.77;;;1.00;;
14141;SDS011;7151;52.246;4.820;2024-03-23T03:23:04;3.47;;;1.50;;
14141;SDS011;7151;52.246;4.820;2024-03-23T03:25:30;3.13;;;1.30;;
14141;SDS011;7151;52.246;4.820;2024-03-23T03:27:56;1.67;;;0.80;;
14141;SDS011;7151;52.246;4.820;2024-03-23T03:30:21;9.97;;;2.30;;
14141;SDS011;7151;52.246;4.820;2024-03-23T03:32:47;2.93;;;1.13;;
14141;SDS011;7151;52.246;4.820;2024-03-23T03:35:12;7.63;;;1.47;;
14141;SDS011;7151;52.246;4.820;2024-03-23T03:37:38;4.53;;;1.23;;
14141;SDS011;7151;52.246;4.820;2024-03-23T03:40:04;4.87;;;1.33;;
14141;SDS011;7151;52.246;4.820;2024-03-23T03:42:30;3.60;;;0.90;;
14141;SDS011;7151;52.246;4.820;2024-03-23T03:44:56;3.20;;;1.13;;
14141;SDS011;7151;52.246;4.820;2024-03-23T03:47:21;4.33;;;1.67;;
14141;SDS011;7151;52.246;4.820;2024-03-23T03:49:47;3.03;;;1.00;;
14141;SDS011;7151;52.246;4.820;2024-03-23T03:52:13;3.07;;;0.90;;
14141;SDS011;7151;52.246;4.820;2024-03-23T03:54:38;3.47;;;0.90;;
14141;SDS011;7151;52.246;4.820;2024-03-23T03:57:04;2.00;;;1.23;;
14141;SDS011;7151;52.246;4.820;2024-03-23T03:59:29;2.17;;;0.80;;
14141;SDS011;7151;52.246;4.820;2024-03-23T04:01:55;3.50;;;1.30;;
14141;SDS011;7151;52.246;4.820;2024-03-23T04:04:20;4.60;;;1.53;;
14141;SDS011;7151;52.246;4.820;2024-03-23T04:06:47;3.30;;;0.90;;
14141;SDS011;7151;52.246;4.820;2024-03-23T04:09:13;6.60;;;1.60;;
14141;SDS011;7151;52.246;4.820;2024-03-23T04:11:40;3.03;;;1.20;;
14141;SDS011;7151;52.246;4.820;2024-03-23T04:14:05;3.43;;;1.20;;
14141;SDS011;7151;52.246;4.820;2024-03-23T04:16:33;3.43;;;1.20;;
14141;SDS011;7151;52.246;4.820;2024-03-23T04:19:00;3.97;;;1.13;;
14141;SDS011;7151;52.246;4.820;2024-03-23T04:21:26;1.73;;;1.10;;
14141;SDS011;7151;52.246;4.820;2024-03-23T04:23:51;5.80;;;1.10;;
14141;SDS011;7151;52.246;4.820;2024-03-23T04:26:17;3.63;;;0.90;;
14141;SDS011;7151;52.246;4.820;2024-03-23T04:28:42;4.10;;;0.80;;
14141;SDS011;7151;52.246;4.820;2024-03-23T04:31:08;3.13;;;1.00;;
14141;SDS011;7151;52.246;4.820;2024-03-23T04:33:34;4.50;;;1.27;;
14141;SDS011;7151;52.246;4.820;2024-03-23T04:36:00;8.27;;;1.50;;
14141;SDS011;7151;52.246;4.820;2024-03-23T04:38:26;5.67;;;1.40;;
14141;SDS011;7151;52.246;4.820;2024-03-23T04:40:55;1.53;;;1.30;;
14141;SDS011;7151;52.246;4.820;2024-03-23T04:43:21;2.87;;;0.90;;
14141;SDS011;7151;52.246;4.820;2024-03-23T04:45:47;1.90;;;1.00;;
14141;SDS011;7151;52.246;4.820;2024-03-23T04:48:15;4.90;;;1.03;;
14141;SDS011;7151;52.246;4.820;2024-03-23T04:50:41;3.80;;;0.80;;
14141;SDS011;7151;52.246;4.820;2024-03-23T04:53:07;1.33;;;0.63;;
14141;SDS011;7151;52.246;4.820;2024-03-23T04:55:32;2.30;;;0.97;;
14141;SDS011;7151;52.246;4.820;2024-03-23T04:57:58;3.37;;;0.80;;
14141;SDS011;7151;52.246;4.820;2024-03-23T05:00:24;4.73;;;0.97;;
14141;SDS011;7151;52.246;4.820;2024-03-23T05:02:51;4.60;;;1.50;;
14141;SDS011;7151;52.246;4.820;2024-03-23T05:05:18;2.33;;;1.10;;
14141;SDS011;7151;52.246;4.820;2024-03-23T05:07:43;2.73;;;1.40;;
14141;SDS011;7151;52.246;4.820;2024-03-23T05:10:09;3.23;;;1.10;;
14141;SDS011;7151;52.246;4.820;2024-03-23T05:12:36;3.30;;;1.40;;
14141;SDS011;7151;52.246;4.820;2024-03-23T05:15:05;2.57;;;1.30;;
14141;SDS011;7151;52.246;4.820;2024-03-23T05:17:32;4.77;;;1.87;;
14141;SDS011;7151;52.246;4.820;2024-03-23T05:19:58;4.87;;;1.53;;
14141;SDS011;7151;52.246;4.820;2024-03-23T05:22:23;5.90;;;1.17;;
14141;SDS011;7151;52.246;4.820;2024-03-23T05:24:49;5.27;;;1.40;;
14141;SDS011;7151;52.246;4.820;2024-03-23T05:27:15;6.97;;;1.50;;
14141;SDS011;7151;52.246;4.820;2024-03-23T05:29:40;4.97;;;1.30;;
14141;SDS011;7151;52.246;4.820;2024-03-23T05:32:06;8.23;;;1.53;;
14141;SDS011;7151;52.246;4.820;2024-03-23T05:34:32;5.20;;;1.33;;
14141;SDS011;7151;52.246;4.820;2024-03-23T05:36:57;2.73;;;1.20;;
14141;SDS011;7151;52.246;4.820;2024-03-23T05:39:23;4.43;;;1.30;;
14141;SDS011;7151;52.246;4.820;2024-03-23T05:41:49;4.13;;;1.33;;
14141;SDS011;7151;52.246;4.820;2024-03-23T05:44:14;4.87;;;1.67;;
14141;SDS011;7151;52.246;4.820;2024-03-23T05:46:40;6.27;;;1.17;;
14141;SDS011;7151;52.246;4.820;2024-03-23T05:49:06;3.53;;;1.53;;
14141;SDS011;7151;52.246;4.820;2024-03-23T05:51:33;2.43;;;1.23;;
14141;SDS011;7151;52.246;4.820;2024-03-23T05:53:58;3.97;;;1.47;;
14141;SDS011;7151;52.246;4.820;2024-03-23T05:56:24;3.97;;;1.30;;
14141;SDS011;7151;52.246;4.820;2024-03-23T05:58:51;3.70;;;1.43;;
14141;SDS011;7151;52.246;4.820;2024-03-23T06:01:19;2.17;;;1.10;;
14141;SDS011;7151;52.246;4.820;2024-03-23T06:03:45;5.77;;;1.33;;
14141;SDS011;7151;52.246;4.820;2024-03-23T06:06:11;1.73;;;1.43;;
14141;SDS011;7151;52.246;4.820;2024-03-23T06:08:38;5.93;;;1.60;;
14141;SDS011;7151;52.246;4.820;2024-03-23T06:11:04;5.70;;;1.50;;
14141;SDS011;7151;52.246;4.820;2024-03-23T06:13:33;4.73;;;1.40;;
14141;SDS011;7151;52.246;4.820;2024-03-23T06:15:59;3.60;;;1.80;;
14141;SDS011;7151;52.246;4.820;2024-03-23T06:18:25;5.43;;;1.40;;
14141;SDS011;7151;52.246;4.820;2024-03-23T06:20:51;4.63;;;1.80;;
14141;SDS011;7151;52.246;4.820;2024-03-23T06:23:16;5.57;;;1.90;;
14141;SDS011;7151;52.246;4.820;2024-03-23T06:25:45;4.57;;;1.70;;
14141;SDS011;7151;52.246;4.820;2024-03-23T06:28:10;5.07;;;2.13;;
14141;SDS011;7151;52.246;4.820;2024-03-23T06:30:36;6.93;;;2.17;;
14141;SDS011;7151;52.246;4.820;2024-03-23T06:33:01;8.03;;;2.23;;
14141;SDS011;7151;52.246;4.820;2024-03-23T06:35:27;5.07;;;1.90;;
14141;SDS011;7151;52.246;4.820;2024-03-23T06:37:53;4.60;;;1.57;;
14141;SDS011;7151;52.246;4.820;2024-03-23T06:40:18;5.47;;;1.40;;
14141;SDS011;7151;52.246;4.820;2024-03-23T06:42:44;5.87;;;1.53;;
14141;SDS011;7151;52.246;4.820;2024-03-23T06:45:09;2.53;;;1.60;;
14141;SDS011;7151;52.246;4.820;2024-03-23T06:47:35;4.50;;;1.97;;
14141;SDS011;7151;52.246;4.820;2024-03-23T06:50:01;3.73;;;1.47;;
14141;SDS011;7151;52.246;4.820;2024-03-23T06:52:28;2.77;;;1.50;;
14141;SDS011;7151;52.246;4.820;2024-03-23T06:54:54;2.70;;;1.07;;
14141;SDS011;7151;52.246;4.820;2024-03-23T06:57:19;2.03;;;0.93;;
14141;SDS011;7151;52.246;4.820;2024-03-23T06:59:45;7.17;;;2.17;;
14141;SDS011;7151;52.246;4.820;2024-03-23T07:02:10;3.07;;;0.90;;
14141;SDS011;7151;52.246;4.820;2024-03-23T07:04:36;3.43;;;1.77;;
14141;SDS011;7151;52.246;4.820;2024-03-23T07:07:04;4.83;;;1.20;;
14141;SDS011;7151;52.246;4.820;2024-03-23T07:09:30;3.70;;;1.77;;
14141;SDS011;7151;52.246;4.820;2024-03-23T07:11:56;4.03;;;1.83;;
14141;SDS011;7151;52.246;4.820;2024-03-23T07:14:22;2.73;;;1.00;;
14141;SDS011;7151;52.246;4.820;2024-03-23T07:16:48;4.67;;;1.77;;
14141;SDS011;7151;52.246;4.820;2024-03-23T07:19:15;5.00;;;1.40;;
14141;SDS011;7151;52.246;4.820;2024-03-23T07:21:41;2.17;;;1.20;;
14141;SDS011;7151;52.246;4.820;2024-03-23T07:24:08;4.90;;;1.20;;
14141;SDS011;7151;52.246;4.820;2024-03-23T07:26:34;8.40;;;1.60;;
14141;SDS011;7151;52.246;4.820;2024-03-23T07:28:59;5.80;;;1.07;;
14141;SDS011;7151;52.246;4.820;2024-03-23T07:31:25;3.20;;;1.07;;
14141;SDS011;7151;52.246;4.820;2024-03-23T07:33:51;2.93;;;1.27;;
14141;SDS011;7151;52.246;4.820;2024-03-23T07:36:16;5.97;;;1.93;;
14141;SDS011;7151;52.246;4.820;2024-03-23T07:38:42;4.97;;;1.50;;
14141;SDS011;7151;52.246;4.820;2024-03-23T07:41:12;3.97;;;1.07;;
14141;SDS011;7151;52.246;4.820;2024-03-23T07:43:46;4.87;;;1.70;;
14141;SDS011;7151;52.246;4.820;2024-03-23T07:46:12;1.87;;;0.97;;
14141;SDS011;7151;52.246;4.820;2024-03-23T07:48:39;2.67;;;0.97;;
14141;SDS011;7151;52.246;4.820;2024-03-23T07:51:16;2.47;;;0.90;;
14141;SDS011;7151;52.246;4.820;2024-03-23T07:53:44;2.63;;;0.90;;
14141;SDS011;7151;52.246;4.820;2024-03-23T07:56:11;2.67;;;1.07;;
14141;SDS011;7151;52.246;4.820;2024-03-23T07:58:37;2.70;;;1.23;;
14141;SDS011;7151;52.246;4.820;2024-03-23T08:01:04;3.83;;;1.17;;
14141;SDS011;7151;52.246;4.820;2024-03-23T08:03:32;1.80;;;1.00;;
14141;SDS011;7151;52.246;4.820;2024-03-23T08:06:06;4.67;;;1.23;;
14141;SDS011;7151;52.246;4.820;2024-03-23T08:08:42;3.43;;;1.10;;
14141;SDS011;7151;52.246;4.820;2024-03-23T08:11:09;5.70;;;1.07;;
14141;SDS011;7151;52.246;4.820;2024-03-23T08:13:35;5.03;;;1.20;;
14141;SDS011;7151;52.246;4.820;2024-03-23T08:16:02;3.27;;;1.00;;
14141;SDS011;7151;52.246;4.820;2024-03-23T08:18:28;3.83;;;1.20;;
14141;SDS011;7151;52.246;4.820;2024-03-23T08:20:58;1.80;;;1.07;;
14141;SDS011;7151;52.246;4.820;2024-03-23T08:23:27;3.23;;;1.00;;
14141;SDS011;7151;52.246;4.820;2024-03-23T08:26:03;4.03;;;1.10;;
14141;SDS011;7151;52.246;4.820;2024-03-23T08:28:30;1.97;;;0.90;;
14141;SDS011;7151;52.246;4.820;2024-03-23T08:30:56;4.07;;;1.00;;
14141;SDS011;7151;52.246;4.820;2024-03-23T08:33:22;4.87;;;1.10;;
14141;SDS011;7151;52.246;4.820;2024-03-23T08:35:54;3.73;;;1.40;;
14141;SDS011;7151;52.246;4.820;2024-03-23T08:38:21;2.33;;;1.07;;
14141;SDS011;7151;52.246;4.820;2024-03-23T08:40:47;3.30;;;1.07;;
14141;SDS011;7151;52.246;4.820;2024-03-23T08:43:13;2.50;;;0.80;;
14141;SDS011;7151;52.246;4.820;2024-03-23T08:45:38;5.17;;;1.20;;
14141;SDS011;7151;52.246;4.820;2024-03-23T08:48:04;6.53;;;1.60;;
14141;SDS011;7151;52.246;4.820;2024-03-23T08:50:30;4.67;;;1.70;;
14141;SDS011;7151;52.246;4.820;2024-03-23T08:52:55;7.57;;;1.43;;
14141;SDS011;7151;52.246;4.820;2024-03-23T08:55:21;4.77;;;1.67;;
14141;SDS011;7151;52.246;4.820;2024-03-23T08:57:46;3.50;;;1.43;;
14141;SDS011;7151;52.246;4.820;2024-03-23T09:00:15;1.67;;;0.80;;
14141;SDS011;7151;52.246;4.820;2024-03-23T09:02:40;3.73;;;1.60;;
14141;SDS011;7151;52.246;4.820;2024-03-23T09:05:06;4.77;;;1.50;;
14141;SDS011;7151;52.246;4.820;2024-03-23T09:07:32;4.37;;;1.70;;
14141;SDS011;7151;52.246;4.820;2024-03-23T09:09:57;2.70;;;1.33;;
14141;SDS011;7151;52.246;4.820;2024-03-23T09:12:23;3.00;;;1.50;;
14141;SDS011;7151;52.246;4.820;2024-03-23T09:14:49;2.63;;;1.43;;
14141;SDS011;7151;52.246;4.820;2024-03-23T09:17:16;5.37;;;1.37;;
14141;SDS011;7151;52.246;4.820;2024-03-23T09:19:43;4.07;;;1.40;;
14141;SDS011;7151;52.246;4.820;2024-03-23T09:22:08;2.90;;;1.10;;
14141;SDS011;7151;52.246;4.820;2024-03-23T09:24:34;3.17;;;1.50;;
14141;SDS011;7151;52.246;4.820;2024-03-23T09:26:59;4.30;;;1.60;;
14141;SDS011;7151;52.246;4.820;2024-03-23T09:29:25;3.10;;;1.17;;
14141;SDS011;7151;52.246;4.820;2024-03-23T09:31:50;2.77;;;1.33;;
14141;SDS011;7151;52.246;4.820;2024-03-23T09:34:16;6.10;;;0.90;;
14141;SDS011;7151;52.246;4.820;2024-03-23T09:36:42;5.53;;;1.23;;
14141;SDS011;7151;52.246;4.820;2024-03-23T09:39:07;2.70;;;1.00;;
14141;SDS011;7151;52.246;4.820;2024-03-23T09:41:34;4.10;;;1.20;;
14141;SDS011;7151;52.246;4.820;2024-03-23T09:44:00;4.30;;;1.10;;
14141;SDS011;7151;52.246;4.820;2024-03-23T09:46:27;3.93;;;1.07;;
14141;SDS011;7151;52.246;4.820;2024-03-23T09:48:53;2.67;;;1.47;;
14141;SDS011;7151;52.246;4.820;2024-03-23T09:51:21;6.90;;;2.07;;
14141;SDS011;7151;52.246;4.820;2024-03-23T09:53:46;4.07;;;1.07;;
14141;SDS011;7151;52.246;4.820;2024-03-23T09:56:15;2.97;;;1.37;;
14141;SDS011;7151;52.246;4.820;2024-03-23T09:58:42;2.13;;;1.17;;
14141;SDS011;7151;52.246;4.820;2024-03-23T10:01:07;7.87;;;1.40;;
14141;SDS011;7151;52.246;4.820;2024-03-23T10:03:46;3.73;;;1.53;;
14141;SDS011;7151;52.246;4.820;2024-03-23T10:06:12;4.37;;;1.17;;
14141;SDS011;7151;52.246;4.820;2024-03-23T10:08:37;4.53;;;1.40;;
14141;SDS011;7151;52.246;4.820;2024-03-23T10:11:16;5.17;;;1.23;;
14141;SDS011;7151;52.246;4.820;2024-03-23T10:13:46;3.50;;;1.10;;
14141;SDS011;7151;52.246;4.820;2024-03-23T10:16:12;3.23;;;1.30;;
14141;SDS011;7151;52.246;4.820;2024-03-23T10:18:45;7.33;;;1.40;;
14141;SDS011;7151;52.246;4.820;2024-03-23T10:21:11;2.90;;;1.30;;
14141;SDS011;7151;52.246;4.820;2024-03-23T10:23:40;1.77;;;1.10;;
14141;SDS011;7151;52.246;4.820;2024-03-23T10:28:59;2.90;;;1.30;;
14141;SDS011;7151;52.246;4.820;2024-03-23T10:31:35;2.97;;;1.13;;
14141;SDS011;7151;52.246;4.820;2024-03-23T10:34:02;3.67;;;1.27;;
14141;SDS011;7151;52.246;4.820;2024-03-23T10:36:28;6.70;;;1.60;;
14141;SDS011;7151;52.246;4.820;2024-03-23T10:38:55;3.23;;;0.90;;
14141;SDS011;7151;52.246;4.820;2024-03-23T10:41:24;3.83;;;1.80;;
14141;SDS011;7151;52.246;4.820;2024-03-23T10:43:52;3.20;;;1.10;;
14141;SDS011;7151;52.246;4.820;2024-03-23T10:46:18;2.30;;;1.30;;
14141;SDS011;7151;52.246;4.820;2024-03-23T10:48:44;3.63;;;1.20;;
14141;SDS011;7151;52.246;4.820;2024-03-23T10:51:09;5.17;;;1.20;;
14141;SDS011;7151;52.246;4.820;2024-03-23T10:53:36;2.73;;;1.10;;
14141;SDS011;7151;52.246;4.820;2024-03-23T10:56:02;3.90;;;1.17;;
14141;SDS011;7151;52.246;4.820;2024-03-23T10:58:38;5.90;;;1.43;;
14141;SDS011;7151;52.246;4.820;2024-03-23T11:01:07;3.33;;;1.00;;
14141;SDS011;7151;52.246;4.820;2024-03-23T11:03:36;3.67;;;1.37;;
14141;SDS011;7151;52.246;4.820;2024-03-23T11:06:03;4.37;;;1.60;;
14141;SDS011;7151;52.246;4.820;2024-03-23T11:08:34;1.90;;;1.27;;
14141;SDS011;7151;52.246;4.820;2024-03-23T11:11:11;2.80;;;1.03;;
14141;SDS011;7151;52.246;4.820;2024-03-23T11:13:50;6.33;;;1.33;;
14141;SDS011;7151;52.246;4.820;2024-03-23T11:16:26;4.87;;;1.10;;
14141;SDS011;7151;52.246;4.820;2024-03-23T11:22:03;4.47;;;1.60;;
14141;SDS011;7151;52.246;4.820;2024-03-23T11:24:30;3.90;;;1.37;;
14141;SDS011;7151;52.246;4.820;2024-03-23T11:26:56;3.73;;;1.20;;
14141;SDS011;7151;52.246;4.820;2024-03-23T11:29:25;2.33;;;0.80;;
14141;SDS011;7151;52.246;4.820;2024-03-23T11:31:51;2.93;;;1.20;;
14141;SDS011;7151;52.246;4.820;2024-03-23T11:34:21;4.57;;;1.37;;
14141;SDS011;7151;52.246;4.820;2024-03-23T11:36:47;5.73;;;1.43;;
14141;SDS011;7151;52.246;4.820;2024-03-23T11:39:19;2.80;;;1.00;;
14141;SDS011;7151;52.246;4.820;2024-03-23T11:41:49;3.57;;;1.23;;
14141;SDS011;7151;52.246;4.820;2024-03-23T11:46:47;3.80;;;1.13;;
14141;SDS011;7151;52.246;4.820;2024-03-23T11:49:26;5.10;;;1.97;;
14141;SDS011;7151;52.246;4.820;2024-03-23T11:51:54;3.60;;;1.00;;
14141;SDS011;7151;52.246;4.820;2024-03-23T11:54:21;3.10;;;0.93;;
14141;SDS011;7151;52.246;4.820;2024-03-23T11:57:00;3.17;;;1.33;;
14141;SDS011;7151;52.246;4.820;2024-03-23T11:59:36;4.13;;;1.27;;
14141;SDS011;7151;52.246;4.820;2024-03-23T12:04:41;2.57;;;1.70;;
14141;SDS011;7151;52.246;4.820;2024-03-23T12:09:40;3.00;;;0.83;;
14141;SDS011;7151;52.246;4.820;2024-03-23T12:12:10;2.33;;;0.70;;
14141;SDS011;7151;52.246;4.820;2024-03-23T12:14:41;2.10;;;0.90;;
14141;SDS011;7151;52.246;4.820;2024-03-23T12:17:08;3.17;;;1.40;;
14141;SDS011;7151;52.246;4.820;2024-03-23T12:19:34;5.90;;;1.30;;
14141;SDS011;7151;52.246;4.820;2024-03-23T12:21:59;4.83;;;1.20;;
14141;SDS011;7151;52.246;4.820;2024-03-23T12:24:26;5.17;;;1.30;;
14141;SDS011;7151;52.246;4.820;2024-03-23T12:26:51;2.63;;;0.83;;
14141;SDS011;7151;52.246;4.820;2024-03-23T12:29:17;6.67;;;1.43;;
14141;SDS011;7151;52.246;4.820;2024-03-23T12:31:43;2.70;;;0.80;;
14141;SDS011;7151;52.246;4.820;2024-03-23T12:34:09;2.30;;;1.30;;
14141;SDS011;7151;52.246;4.820;2024-03-23T12:36:34;2.37;;;0.90;;
14141;SDS011;7151;52.246;4.820;2024-03-23T12:39:00;3.10;;;1.20;;
14141;SDS011;7151;52.246;4.820;2024-03-23T12:41:26;2.90;;;1.10;;
14141;SDS011;7151;52.246;4.820;2024-03-23T12:43:51;4.47;;;1.13;;
14141;SDS011;7151;52.246;4.820;2024-03-23T12:46:17;3.77;;;0.90;;
14141;SDS011;7151;52.246;4.820;2024-03-23T12:48:44;6.37;;;1.20;;
14141;SDS011;7151;52.246;4.820;2024-03-23T12:51:10;3.47;;;1.20;;
14141;SDS011;7151;52.246;4.820;2024-03-23T12:53:35;2.67;;;0.93;;
14141;SDS011;7151;52.246;4.820;2024-03-23T12:56:01;2.20;;;1.00;;
14141;SDS011;7151;52.246;4.820;2024-03-23T12:58:26;4.33;;;1.30;;
14141;SDS011;7151;52.246;4.820;2024-03-23T13:00:52;2.67;;;0.77;;
14141;SDS011;7151;52.246;4.820;2024-03-23T13:03:17;2.50;;;0.73;;
14141;SDS011;7151;52.246;4.820;2024-03-23T13:05:43;1.97;;;1.00;;
14141;SDS011;7151;52.246;4.820;2024-03-23T13:08:08;3.03;;;0.83;;
14141;SDS011;7151;52.246;4.820;2024-03-23T13:10:34;3.73;;;0.93;;
14141;SDS011;7151;52.246;4.820;2024-03-23T13:13:00;3.70;;;1.40;;
14141;SDS011;7151;52.246;4.820;2024-03-23T13:15:25;2.10;;;0.73;;
14141;SDS011;7151;52.246;4.820;2024-03-23T13:17:51;3.00;;;1.30;;
14141;SDS011;7151;52.246;4.820;2024-03-23T13:20:18;4.43;;;1.10;;
14141;SDS011;7151;52.246;4.820;2024-03-23T13:22:45;3.27;;;0.87;;
14141;SDS011;7151;52.246;4.820;2024-03-23T13:25:12;1.33;;;0.70;;
14141;SDS011;7151;52.246;4.820;2024-03-23T13:27:38;1.53;;;0.93;;
14141;SDS011;7151;52.246;4.820;2024-03-23T13:30:03;3.57;;;1.00;;
14141;SDS011;7151;52.246;4.820;2024-03-23T13:32:29;4.07;;;0.90;;
14141;SDS011;7151;52.246;4.820;2024-03-23T13:34:55;3.63;;;1.30;;
14141;SDS011;7151;52.246;4.820;2024-03-23T13:37:20;3.33;;;1.03;;
14141;SDS011;7151;52.246;4.820;2024-03-23T13:39:46;1.33;;;0.70;;
14141;SDS011;7151;52.246;4.820;2024-03-23T13:42:12;2.27;;;0.90;;
14141;SDS011;7151;52.246;4.820;2024-03-23T13:44:38;1.57;;;0.67;;
14141;SDS011;7151;52.246;4.820;2024-03-23T13:47:04;2.53;;;1.07;;
14141;SDS011;7151;52.246;4.820;2024-03-23T13:49:30;2.50;;;0.60;;
14141;SDS011;7151;52.246;4.820;2024-03-23T13:51:57;2.73;;;1.20;;
14141;SDS011;7151;52.246;4.820;2024-03-23T13:54:23;2.87;;;0.90;;
14141;SDS011;7151;52.246;4.820;2024-03-23T13:56:53;3.93;;;0.70;;
14141;SDS011;7151;52.246;4.820;2024-03-23T13:59:20;1.80;;;0.70;;
14141;SDS011;7151;52.246;4.820;2024-03-23T14:01:48;1.50;;;0.63;;
14141;SDS011;7151;52.246;4.820;2024-03-23T14:04:14;5.80;;;1.27;;
14141;SDS011;7151;52.246;4.820;2024-03-23T14:06:41;3.63;;;1.07;;
14141;SDS011;7151;52.246;4.820;2024-03-23T14:09:07;3.07;;;1.03;;
14141;SDS011;7151;52.246;4.820;2024-03-23T14:11:36;4.67;;;1.00;;
14141;SDS011;7151;52.246;4.820;2024-03-23T14:14:02;2.93;;;0.80;;
14141;SDS011;7151;52.246;4.820;2024-03-23T14:16:28;2.30;;;0.80;;
14141;SDS011;7151;52.246;4.820;2024-03-23T14:18:54;2.33;;;1.13;;
14141;SDS011;7151;52.246;4.820;2024-03-23T14:21:20;4.30;;;1.43;;
14141;SDS011;7151;52.246;4.820;2024-03-23T14:23:46;2.10;;;0.80;;
14141;SDS011;7151;52.246;4.820;2024-03-23T14:26:11;4.80;;;1.40;;
14141;SDS011;7151;52.246;4.820;2024-03-23T14:28:37;3.03;;;0.80;;
14141;SDS011;7151;52.246;4.820;2024-03-23T14:31:02;5.50;;;0.90;;
14141;SDS011;7151;52.246;4.820;2024-03-23T14:33:32;2.47;;;1.10;;
14141;SDS011;7151;52.246;4.820;2024-03-23T14:36:01;2.27;;;0.90;;
14141;SDS011;7151;52.246;4.820;2024-03-23T14:38:26;3.53;;;0.77;;
14141;SDS011;7151;52.246;4.820;2024-03-23T14:40:52;6.27;;;1.00;;
14141;SDS011;7151;52.246;4.820;2024-03-23T14:43:18;3.37;;;1.13;;
14141;SDS011;7151;52.246;4.820;2024-03-23T14:48:39;2.93;;;1.00;;
14141;SDS011;7151;52.246;4.820;2024-03-23T14:51:06;3.03;;;0.90;;
14141;SDS011;7151;52.246;4.820;2024-03-23T14:53:33;5.07;;;1.07;;
14141;SDS011;7151;52.246;4.820;2024-03-23T14:55:59;2.03;;;0.80;;
14141;SDS011;7151;52.246;4.820;2024-03-23T14:58:26;2.80;;;1.20;;
14141;SDS011;7151;52.246;4.820;2024-03-23T15:00:52;3.57;;;1.07;;
14141;SDS011;7151;52.246;4.820;2024-03-23T15:03:18;2.47;;;0.87;;
14141;SDS011;7151;52.246;4.820;2024-03-23T15:05:56;1.07;;;0.70;;
14141;SDS011;7151;52.246;4.820;2024-03-23T15:08:23;2.60;;;0.80;;
14141;SDS011;7151;52.246;4.820;2024-03-23T15:10:49;3.77;;;1.40;;
14141;SDS011;7151;52.246;4.820;2024-03-23T15:13:15;2.00;;;0.90;;
14141;SDS011;7151;52.246;4.820;2024-03-23T15:15:41;2.20;;;1.07;;
14141;SDS011;7151;52.246;4.820;2024-03-23T15:18:10;2.53;;;0.90;;
14141;SDS011;7151;52.246;4.820;2024-03-23T15:20:37;2.33;;;1.00;;
14141;SDS011;7151;52.246;4.820;2024-03-23T15:23:03;3.93;;;0.90;;
14141;SDS011;7151;52.246;4.820;2024-03-23T15:25:29;1.70;;;0.93;;
14141;SDS011;7151;52.246;4.820;2024-03-23T15:27:56;3.23;;;0.80;;
14141;SDS011;7151;52.246;4.820;2024-03-23T15:30:22;1.97;;;0.90;;
14141;SDS011;7151;52.246;4.820;2024-03-23T15:32:48;3.17;;;0.83;;
14141;SDS011;7151;52.246;4.820;2024-03-23T15:35:14;4.90;;;1.47;;
14141;SDS011;7151;52.246;4.820;2024-03-23T15:37:39;4.77;;;1.43;;
14141;SDS011;7151;52.246;4.820;2024-03-23T15:40:06;0.83;;;0.60;;
14141;SDS011;7151;52.246;4.820;2024-03-23T15:42:32;1.57;;;0.60;;
14141;SDS011;7151;52.246;4.820;2024-03-23T15:44:57;1.13;;;0.80;;
14141;SDS011;7151;52.246;4.820;2024-03-23T15:47:23;1.73;;;0.70;;
14141;SDS011;7151;52.246;4.820;2024-03-23T15:49:49;4.10;;;1.00;;
14141;SDS011;7151;52.246;4.820;2024-03-23T15:52:15;1.77;;;0.70;;
14141;SDS011;7151;52.246;4.820;2024-03-23T15:54:40;1.83;;;0.70;;
14141;SDS011;7151;52.246;4.820;2024-03-23T15:57:08;1.97;;;0.77;;
14141;SDS011;7151;52.246;4.820;2024-03-23T15:59:33;1.57;;;0.47;;
14141;SDS011;7151;52.246;4.820;2024-03-23T16:02:01;0.30;;;0.30;;
14141;SDS011;7151;52.246;4.820;2024-03-23T16:04:27;0.27;;;0.27;;
14141;SDS011;7151;52.246;4.820;2024-03-23T16:06:53;1.40;;;0.50;;